createdAt,value
2022-10-11T00:01:10.398Z,10.13
2022-10-11T00:03:38.389Z,10.04
2022-10-11T00:06:07.250Z,10.12
2022-10-11T00:08:35.495Z,10.03
2022-10-11T00:11:05.802Z,10.04
2022-10-11T00:13:33.937Z,9.95
2022-10-11T00:16:08.833Z,10.02
2022-10-11T00:18:37.035Z,9.95
2022-10-11T00:21:06.339Z,10.03
2022-10-11T00:23:35.236Z,10.00
2022-10-11T00:26:05.637Z,9.96
2022-10-11T00:28:34.161Z,10.02
2022-10-11T00:31:05.296Z,9.99
2022-10-11T00:33:33.358Z,9.89
2022-10-11T00:36:01.468Z,9.86
2022-10-11T00:38:31.850Z,9.87
2022-10-11T00:41:00.157Z,9.89
2022-10-11T00:43:30.731Z,9.94
2022-10-11T00:46:37.106Z,9.87
2022-10-11T00:49:15.730Z,9.86
2022-10-11T00:51:50.101Z,9.91
2022-10-11T00:54:20.395Z,9.84
2022-10-11T00:56:52.467Z,9.85
2022-10-11T00:59:24.154Z,9.80
2022-10-11T01:01:52.441Z,9.77
2022-10-11T01:04:21.748Z,9.73
2022-10-11T01:06:50.637Z,9.64
2022-10-11T01:09:20.317Z,9.64
2022-10-11T01:11:48.472Z,9.57
2022-10-11T01:14:42.168Z,9.63
2022-10-11T01:17:16.772Z,9.61
2022-10-11T01:20:09.054Z,9.56
2022-10-11T01:22:59.918Z,9.47
2022-10-11T01:25:29.466Z,9.40
2022-10-11T01:28:11.844Z,9.37
2022-10-11T01:30:41.343Z,9.26
2022-10-11T01:33:17.913Z,9.29
2022-10-11T01:35:48.380Z,9.28
2022-10-11T01:38:19.008Z,9.39
2022-10-11T01:40:49.689Z,9.30
2022-10-11T01:43:17.910Z,9.29
2022-10-11T01:45:49.308Z,9.22
2022-10-11T01:48:17.322Z,9.26
2022-10-11T01:50:47.038Z,9.21
2022-10-11T01:53:26.902Z,9.16
2022-10-11T01:55:57.272Z,9.14
2022-10-11T01:58:34.171Z,9.14
2022-10-11T02:01:10.608Z,9.05
2022-10-11T02:03:45.790Z,9.13
2022-10-11T02:06:18.329Z,9.03
2022-10-11T02:08:51.561Z,9.04
2022-10-11T02:11:22.339Z,9.04
2022-10-11T02:13:54.652Z,9.07
2022-10-11T02:16:28.399Z,9.09
2022-10-11T02:18:57.831Z,9.17
2022-10-11T02:21:25.870Z,9.13
2022-10-11T02:23:58.526Z,9.18
2022-10-11T02:26:29.141Z,9.18
2022-10-11T02:29:00.384Z,9.12
2022-10-11T02:31:30.632Z,9.13
2022-10-11T02:34:01.647Z,9.10
2022-10-11T02:36:34.228Z,9.16
2022-10-11T02:39:08.032Z,9.15
2022-10-11T02:41:38.678Z,9.21
2022-10-11T02:44:09.291Z,9.11
2022-10-11T02:46:38.994Z,9.10
2022-10-11T02:49:08.632Z,9.20
2022-10-11T02:51:37.539Z,9.18
2022-10-11T02:54:05.543Z,9.08
2022-10-11T02:56:33.423Z,9.10
2022-10-11T02:59:01.362Z,9.14
2022-10-11T03:01:29.299Z,9.05
2022-10-11T03:03:58.577Z,9.13
2022-10-11T03:06:26.373Z,9.06
2022-10-11T03:08:54.242Z,8.97
2022-10-11T03:11:22.049Z,9.05
2022-10-11T03:13:49.952Z,9.01
2022-10-11T03:16:17.784Z,8.97
2022-10-11T03:18:45.738Z,9.05
2022-10-11T03:21:14.968Z,9.12
2022-10-11T03:23:43.244Z,9.16
2022-10-11T03:26:11.083Z,9.13
2022-10-11T03:28:39.034Z,9.16
2022-10-11T03:31:07.245Z,9.14
2022-10-11T03:33:35.104Z,9.07
2022-10-11T03:36:03.798Z,9.13
2022-10-11T03:38:33.215Z,9.11
2022-10-11T03:41:01.057Z,9.07
2022-10-11T03:43:30.593Z,9.15
2022-10-11T03:45:58.425Z,9.10
2022-10-11T03:48:26.575Z,9.11
2022-10-11T03:50:54.494Z,9.10
2022-10-11T03:53:22.321Z,9.04
2022-10-11T03:55:55.403Z,9.00
2022-10-11T03:58:23.718Z,8.97
2022-10-11T04:00:52.787Z,8.99
2022-10-11T04:03:20.653Z,8.87
2022-10-11T04:05:48.579Z,8.86
2022-10-11T04:08:16.570Z,8.82
2022-10-11T04:10:44.459Z,8.76
2022-10-11T04:13:13.651Z,8.70
2022-10-11T04:15:42.293Z,8.76
2022-10-11T04:18:10.859Z,8.74
2022-10-11T04:20:39.003Z,8.69
2022-10-11T04:23:06.967Z,8.69
2022-10-11T04:25:34.880Z,8.72
2022-10-11T04:28:02.852Z,8.77
2022-10-11T04:30:32.078Z,8.74
2022-10-11T04:32:59.939Z,8.71
2022-10-11T04:35:27.808Z,8.78
2022-10-11T04:37:55.705Z,8.78
2022-10-11T04:40:23.883Z,8.75
2022-10-11T04:42:53.666Z,8.73
2022-10-11T04:45:21.861Z,8.75
2022-10-11T04:47:51.305Z,8.75
2022-10-11T04:50:19.322Z,8.65
2022-10-11T04:52:47.230Z,8.77
2022-10-11T04:55:15.230Z,8.75
2022-10-11T04:57:43.027Z,8.76
2022-10-11T05:00:12.278Z,8.78
2022-10-11T05:02:40.134Z,8.76
2022-10-11T05:05:10.471Z,8.69
2022-10-11T05:07:38.504Z,8.73
2022-10-11T05:10:07.492Z,8.65
2022-10-11T05:12:35.413Z,8.61
2022-10-11T05:15:03.296Z,8.62
2022-10-11T05:17:31.121Z,8.66
2022-10-11T05:19:58.990Z,8.63
2022-10-11T05:22:28.221Z,8.63
2022-10-11T05:24:56.118Z,8.66
2022-10-11T05:27:23.956Z,8.62
2022-10-11T05:29:52.024Z,8.61
2022-10-11T05:32:19.877Z,8.55
2022-10-11T05:34:47.743Z,8.46
2022-10-11T05:37:15.649Z,8.53
2022-10-11T05:39:45.074Z,8.59
2022-10-11T05:42:13.332Z,8.47
2022-10-11T05:44:41.208Z,8.54
2022-10-11T05:47:09.103Z,8.56
2022-10-11T05:49:37.032Z,8.57
2022-10-11T05:52:06.613Z,8.62
2022-10-11T05:54:34.590Z,8.58
2022-10-11T05:57:06.627Z,8.63
2022-10-11T05:59:38.644Z,8.64
2022-10-11T06:02:07.389Z,8.63
2022-10-11T06:04:37.216Z,8.63
2022-10-11T06:07:05.737Z,8.62
2022-10-11T06:09:34.826Z,8.62
2022-10-11T06:12:04.666Z,8.74
2022-10-11T06:14:32.513Z,8.67
2022-10-11T06:17:00.305Z,8.69
2022-10-11T06:19:28.208Z,8.74
2022-10-11T06:21:56.000Z,8.76
2022-10-11T06:24:23.934Z,8.73
2022-10-11T06:26:51.859Z,8.77
2022-10-11T06:29:21.182Z,8.81
2022-10-11T06:31:49.254Z,8.90
2022-10-11T06:34:17.193Z,8.95
2022-10-11T06:36:45.035Z,8.93
2022-10-11T06:39:12.955Z,9.04
2022-10-11T06:41:40.791Z,9.05
2022-10-11T06:44:14.020Z,9.13
2022-10-11T06:46:43.979Z,9.14
2022-10-11T06:49:12.048Z,9.15
2022-10-11T06:51:40.086Z,9.25
2022-10-11T06:54:08.111Z,9.32
2022-10-11T06:56:36.001Z,9.32
2022-10-11T06:59:04.200Z,9.50
2022-10-11T07:01:32.775Z,9.53
2022-10-11T07:04:03.019Z,9.59
2022-10-11T07:06:31.854Z,9.63
2022-10-11T07:09:01.013Z,9.71
2022-10-11T07:11:29.451Z,9.80
2022-10-11T07:13:59.349Z,9.88
2022-10-11T07:16:28.271Z,9.86
2022-10-11T07:19:00.546Z,10.00
2022-10-11T07:21:30.813Z,9.95
2022-10-11T07:23:58.734Z,10.05
2022-10-11T07:26:26.705Z,10.21
2022-10-11T07:28:54.821Z,10.23
2022-10-11T07:31:25.323Z,10.22
2022-10-11T07:33:53.182Z,10.19
2022-10-11T07:36:23.358Z,10.35
2022-10-11T07:38:52.853Z,10.54
2022-10-11T07:41:21.338Z,10.62
2022-10-11T07:43:49.813Z,10.60
2022-10-11T07:46:18.268Z,10.66
2022-10-11T07:48:46.273Z,10.81
2022-10-11T07:51:15.751Z,10.94
2022-10-11T07:53:44.937Z,10.90
2022-10-11T07:56:15.774Z,11.11
2022-10-11T07:58:44.380Z,11.35
2022-10-11T08:01:14.437Z,11.53
2022-10-11T08:03:42.362Z,11.33
2022-10-11T08:06:10.883Z,11.49
2022-10-11T08:08:39.124Z,11.40
2022-10-11T08:11:07.489Z,11.41
2022-10-11T08:13:36.782Z,11.55
2022-10-11T08:16:11.220Z,11.50
2022-10-11T08:18:39.188Z,11.51
2022-10-11T08:21:08.717Z,11.73
2022-10-11T08:23:36.832Z,11.73
2022-10-11T08:26:05.860Z,11.91
2022-10-11T08:28:34.157Z,12.01
2022-10-11T08:31:04.193Z,12.11
2022-10-11T08:33:32.151Z,12.11
2022-10-11T08:35:59.995Z,12.21
2022-10-11T08:38:27.826Z,12.31
2022-10-11T08:40:57.821Z,12.56
2022-10-11T08:43:33.410Z,12.72
2022-10-11T08:46:04.436Z,12.69
2022-10-11T08:48:35.790Z,12.76
2022-10-11T08:51:10.022Z,12.86
2022-10-11T08:53:45.178Z,12.67
2022-10-11T08:56:14.415Z,12.62
2022-10-11T08:58:47.780Z,12.83
2022-10-11T09:01:19.919Z,12.84
2022-10-11T09:03:48.741Z,12.89
2022-10-11T09:06:22.816Z,13.12
2022-10-11T09:09:04.117Z,13.15
2022-10-11T09:11:39.932Z,13.35
2022-10-11T09:14:27.561Z,13.29
2022-10-11T09:17:03.493Z,13.16
2022-10-11T09:19:51.058Z,13.19
2022-10-11T09:22:25.718Z,13.33
2022-10-11T09:25:11.241Z,13.49
2022-10-11T09:28:01.111Z,13.38
2022-10-11T09:30:27.355Z,13.28
2022-10-11T09:33:04.274Z,13.57
2022-10-11T09:35:34.760Z,13.96
2022-10-11T09:38:06.266Z,13.69
2022-10-11T09:40:45.991Z,13.67
2022-10-11T09:43:14.177Z,13.60
2022-10-11T09:45:49.257Z,13.76
2022-10-11T09:48:22.399Z,13.70
2022-10-11T09:50:50.510Z,13.86
2022-10-11T09:53:19.316Z,14.04
2022-10-11T09:55:52.237Z,14.17
2022-10-11T09:58:30.326Z,14.31
2022-10-11T10:01:05.127Z,14.61
2022-10-11T10:03:38.047Z,14.41
2022-10-11T10:06:08.506Z,14.48
2022-10-11T10:08:37.596Z,14.49
2022-10-11T10:11:07.225Z,14.65
2022-10-11T10:13:44.315Z,14.80
2022-10-11T10:16:26.319Z,14.94
2022-10-11T10:18:57.037Z,15.01
2022-10-11T10:21:28.352Z,15.13
2022-10-11T10:23:56.691Z,15.10
2022-10-11T10:26:26.327Z,15.23
2022-10-11T10:29:04.267Z,15.77
2022-10-11T10:32:01.502Z,15.92
2022-10-11T10:34:29.625Z,16.07
2022-10-11T10:36:59.314Z,16.23
2022-10-11T10:39:32.540Z,16.21
2022-10-11T10:42:02.818Z,15.91
2022-10-11T10:44:30.653Z,15.97
2022-10-11T10:47:05.282Z,16.22
2022-10-11T10:49:55.747Z,16.68
2022-10-11T10:52:40.403Z,16.45
2022-10-11T10:55:18.752Z,16.17
2022-10-11T10:57:57.713Z,16.56
2022-10-11T11:00:25.950Z,16.37
2022-10-11T11:02:58.468Z,16.56
2022-10-11T11:05:34.866Z,16.47
2022-10-11T11:08:06.773Z,16.25
2022-10-11T11:10:38.256Z,16.36
2022-10-11T11:13:24.627Z,16.43
2022-10-11T11:15:59.162Z,17.06
2022-10-11T11:18:30.272Z,16.75
2022-10-11T11:21:14.295Z,17.42
2022-10-11T11:23:46.873Z,17.64
2022-10-11T11:26:20.042Z,17.44
2022-10-11T11:28:57.979Z,17.00
2022-10-11T11:31:36.633Z,17.15
2022-10-11T11:34:12.087Z,17.56
2022-10-11T11:36:45.334Z,17.53
2022-10-11T11:39:17.739Z,17.28
2022-10-11T11:41:49.972Z,17.30
2022-10-11T11:44:25.015Z,17.42
2022-10-11T11:46:58.605Z,17.13
2022-10-11T11:49:31.665Z,16.62
2022-10-11T11:52:01.340Z,16.53
2022-10-11T11:54:47.907Z,16.43
2022-10-11T11:57:24.737Z,16.13
2022-10-11T11:59:57.507Z,16.16
2022-10-11T12:02:39.318Z,16.41
2022-10-11T12:05:08.061Z,16.86
2022-10-11T12:07:49.697Z,15.96
2022-10-11T12:10:25.267Z,15.40
2022-10-11T12:13:04.444Z,16.12
2022-10-11T12:15:33.210Z,16.20
2022-10-11T12:18:05.126Z,16.02
2022-10-11T12:20:34.507Z,16.89
2022-10-11T12:23:05.215Z,17.24
2022-10-11T12:26:16.744Z,17.63
2022-10-11T12:29:24.567Z,17.75
2022-10-11T12:32:28.787Z,17.34
2022-10-11T12:35:29.789Z,16.82
2022-10-11T12:38:06.769Z,17.30
2022-10-11T12:40:41.806Z,17.57
2022-10-11T12:43:13.194Z,17.34
2022-10-11T12:45:41.307Z,16.93
2022-10-11T12:48:19.769Z,18.06
2022-10-11T12:50:53.694Z,17.32
2022-10-11T12:53:53.801Z,17.15
2022-10-11T12:56:46.605Z,16.32
2022-10-11T12:59:18.746Z,15.79
2022-10-11T13:01:52.389Z,15.90
2022-10-11T13:04:22.359Z,15.63
2022-10-11T13:06:53.488Z,15.46
2022-10-11T13:09:29.571Z,15.69
2022-10-11T13:12:01.624Z,15.69
2022-10-11T13:14:30.855Z,15.60
2022-10-11T13:17:06.624Z,15.46
2022-10-11T13:19:37.114Z,15.60
2022-10-11T13:22:07.020Z,15.69
2022-10-11T13:24:40.053Z,15.74
2022-10-11T13:27:08.831Z,15.50
2022-10-11T13:29:38.504Z,15.38
2022-10-11T13:32:16.313Z,14.83
2022-10-11T13:34:47.126Z,14.95
2022-10-11T13:37:17.973Z,14.74
2022-10-11T13:39:48.847Z,14.49
2022-10-11T13:42:18.604Z,14.46
2022-10-11T13:44:47.476Z,14.38
2022-10-11T13:47:18.228Z,14.28
2022-10-11T13:49:47.622Z,14.21
2022-10-11T13:52:23.945Z,13.97
2022-10-11T13:54:58.846Z,13.62
2022-10-11T13:57:34.936Z,13.43
2022-10-11T14:00:04.216Z,13.23
2022-10-11T14:02:40.212Z,12.96
2022-10-11T14:05:08.287Z,12.83
2022-10-11T14:07:38.822Z,12.83
2022-10-11T14:10:08.800Z,12.80
2022-10-11T14:12:40.350Z,12.92
2022-10-11T14:15:23.559Z,13.03
2022-10-11T14:17:51.443Z,13.07
2022-10-11T14:20:23.731Z,13.28
2022-10-11T14:22:52.111Z,13.53
2022-10-11T14:25:21.519Z,13.48
2022-10-11T14:27:49.571Z,14.74
2022-10-11T14:30:25.480Z,16.77
2022-10-11T14:32:55.682Z,18.25
2022-10-11T14:35:30.635Z,17.62
2022-10-11T14:37:58.865Z,16.87
2022-10-11T14:40:29.811Z,16.47
2022-10-11T14:42:57.799Z,15.97
2022-10-11T14:45:25.724Z,15.28
2022-10-11T14:47:53.633Z,14.92
2022-10-11T14:50:40.700Z,14.50
2022-10-11T14:53:12.932Z,14.38
2022-10-11T14:55:43.123Z,14.14
2022-10-11T14:58:13.166Z,13.94
2022-10-11T15:00:41.219Z,13.83
2022-10-11T15:03:09.077Z,13.58
2022-10-11T15:05:37.621Z,13.64
2022-10-11T15:08:06.345Z,13.92
2022-10-11T15:10:36.768Z,13.68
2022-10-11T15:13:08.215Z,13.65
2022-10-11T15:15:40.987Z,13.50
2022-10-11T15:18:13.359Z,13.51
2022-10-11T15:20:43.790Z,13.50
2022-10-11T15:23:12.305Z,13.50
2022-10-11T15:25:41.298Z,13.44
2022-10-11T15:28:17.980Z,13.40
2022-10-11T15:30:45.927Z,13.26
2022-10-11T15:33:13.747Z,13.48
2022-10-11T15:35:41.849Z,13.43
2022-10-11T15:38:16.835Z,13.36
2022-10-11T15:40:45.474Z,13.26
2022-10-11T15:43:14.943Z,13.38
2022-10-11T15:45:43.491Z,13.33
2022-10-11T15:48:15.150Z,13.47
2022-10-11T15:50:43.506Z,13.26
2022-10-11T15:53:13.554Z,13.12
2022-10-11T15:55:43.403Z,13.11
2022-10-11T15:58:15.224Z,13.05
2022-10-11T16:00:43.420Z,13.00
2022-10-11T16:03:12.736Z,12.99
2022-10-11T16:05:41.620Z,12.90
2022-10-11T16:08:09.937Z,12.89
2022-10-11T16:10:38.078Z,13.02
2022-10-11T16:13:06.331Z,12.88
2022-10-11T16:15:35.805Z,12.87
2022-10-11T16:18:03.623Z,12.73
2022-10-11T16:20:31.626Z,12.80
2022-10-11T16:22:59.550Z,12.80
2022-10-11T16:25:27.464Z,12.77
2022-10-11T16:27:55.432Z,12.74
2022-10-11T16:30:23.318Z,12.61
2022-10-11T16:32:52.516Z,12.52
2022-10-11T16:35:21.479Z,12.48
2022-10-11T16:37:49.582Z,12.48
2022-10-11T16:40:20.227Z,12.48
2022-10-11T16:42:48.780Z,12.23
2022-10-11T16:45:17.220Z,12.17
2022-10-11T16:47:45.478Z,12.13
2022-10-11T16:50:14.738Z,11.98
2022-10-11T16:52:42.592Z,11.95
2022-10-11T16:55:10.712Z,11.78
2022-10-11T16:57:38.790Z,11.63
2022-10-11T17:00:08.542Z,11.63
2022-10-11T17:02:36.936Z,11.67
2022-10-11T17:05:05.255Z,11.62
2022-10-11T17:07:34.453Z,11.61
2022-10-11T17:10:02.609Z,11.68
2022-10-11T17:12:31.922Z,11.47
2022-10-11T17:14:59.822Z,11.52
2022-10-11T17:17:28.041Z,11.41
2022-10-11T17:19:55.923Z,11.29
2022-10-11T17:22:24.090Z,11.20
2022-10-11T17:24:53.333Z,11.18
2022-10-11T17:27:21.318Z,11.14
2022-10-11T17:29:49.126Z,11.13
2022-10-11T17:32:16.937Z,11.10
2022-10-11T17:34:44.826Z,11.07
2022-10-11T17:37:12.663Z,11.14
2022-10-11T17:39:40.614Z,11.17
2022-10-11T17:42:09.871Z,11.13
2022-10-11T17:44:37.879Z,10.97
2022-10-11T17:47:07.136Z,10.93
2022-10-11T17:49:35.198Z,10.88
2022-10-11T17:52:03.396Z,10.91
2022-10-11T17:54:31.319Z,10.90
2022-10-11T17:56:59.216Z,10.81
2022-10-11T17:59:28.763Z,10.85
2022-10-11T18:01:56.763Z,10.76
2022-10-11T18:04:27.798Z,10.73
2022-10-11T18:06:55.967Z,10.74
2022-10-11T18:09:24.764Z,10.63
2022-10-11T18:11:52.914Z,10.65
2022-10-11T18:14:21.174Z,10.61
2022-10-11T18:16:50.464Z,10.59
2022-10-11T18:19:18.463Z,10.60
2022-10-11T18:21:46.320Z,10.58
2022-10-11T18:24:16.306Z,10.55
2022-10-11T18:26:45.309Z,10.58
2022-10-11T18:29:13.743Z,10.63
2022-10-11T18:31:41.962Z,10.61
2022-10-11T18:34:12.890Z,10.63
2022-10-11T18:36:41.127Z,10.66
2022-10-11T18:39:12.036Z,10.61
2022-10-11T18:41:42.098Z,10.65
2022-10-11T18:44:13.657Z,10.65
2022-10-11T18:46:42.432Z,10.73
2022-10-11T18:49:11.695Z,10.69
2022-10-11T18:51:40.923Z,10.76
2022-10-11T18:54:09.963Z,10.82
2022-10-11T18:56:38.158Z,10.86
2022-10-11T18:59:07.047Z,10.91
2022-10-11T19:01:38.010Z,11.02
2022-10-11T19:04:07.222Z,10.98
2022-10-11T19:06:38.203Z,11.04
2022-10-11T19:09:07.982Z,11.17
2022-10-11T19:11:36.170Z,11.21
2022-10-11T19:14:07.345Z,11.16
2022-10-11T19:16:37.515Z,11.25
2022-10-11T19:19:05.824Z,11.25
2022-10-11T19:21:33.953Z,11.25
2022-10-11T19:24:04.276Z,11.27
2022-10-11T19:26:34.371Z,11.28
2022-10-11T19:29:03.980Z,11.32
2022-10-11T19:31:32.607Z,11.28
2022-10-11T19:34:01.036Z,11.36
2022-10-11T19:36:34.009Z,11.42
2022-10-11T19:39:05.937Z,11.61
2022-10-11T19:41:33.922Z,11.54
2022-10-11T19:44:01.786Z,11.55
2022-10-11T19:46:50.469Z,11.48
2022-10-11T19:49:20.370Z,11.40
2022-10-11T19:51:48.315Z,11.42
2022-10-11T19:54:17.855Z,11.50
2022-10-11T19:56:45.927Z,11.48
2022-10-11T19:59:14.599Z,11.56
2022-10-11T20:01:46.631Z,11.61
2022-10-11T20:04:39.583Z,11.56
2022-10-11T20:07:06.252Z,11.49
2022-10-11T20:09:35.508Z,11.60
2022-10-11T20:12:03.449Z,11.54
2022-10-11T20:14:31.280Z,11.44
2022-10-11T20:16:59.181Z,11.42
2022-10-11T20:19:31.021Z,11.41
2022-10-11T20:22:00.708Z,11.50
2022-10-11T20:24:32.794Z,11.57
2022-10-11T20:27:03.716Z,11.52
2022-10-11T20:29:31.758Z,11.48
2022-10-11T20:31:59.898Z,11.52
2022-10-11T20:34:28.693Z,11.43
2022-10-11T20:36:56.554Z,11.44
2022-10-11T20:39:24.748Z,11.39
2022-10-11T20:41:52.712Z,11.27
2022-10-11T20:44:21.978Z,11.32
2022-10-11T20:46:49.790Z,11.39
2022-10-11T20:49:19.733Z,11.46
2022-10-11T20:51:47.648Z,11.43
2022-10-11T20:54:15.530Z,11.38
2022-10-11T20:56:43.336Z,11.49
2022-10-11T20:59:11.342Z,11.41
2022-10-11T21:01:41.791Z,11.42
2022-10-11T21:04:17.265Z,11.40
2022-10-11T21:06:45.135Z,11.48
2022-10-11T21:09:15.616Z,11.42
2022-10-11T21:11:45.193Z,11.58
2022-10-11T21:14:13.025Z,11.56
2022-10-11T21:16:42.268Z,11.57
2022-10-11T21:19:13.707Z,11.62
2022-10-11T21:21:41.617Z,11.62
2022-10-11T21:24:09.451Z,11.66
2022-10-11T21:26:37.316Z,11.70
2022-10-11T21:29:05.298Z,11.71
2022-10-11T21:31:34.559Z,11.61
2022-10-11T21:34:05.066Z,11.62
2022-10-11T21:36:32.991Z,11.54
2022-10-11T21:39:00.829Z,11.55
2022-10-11T21:41:30.278Z,11.54
2022-10-11T21:43:58.547Z,11.56
2022-10-11T21:46:47.642Z,11.72
2022-10-11T21:49:16.735Z,11.54
2022-10-11T21:51:44.658Z,11.57
2022-10-11T21:54:12.503Z,11.62
2022-10-11T21:56:40.370Z,11.55
2022-10-11T21:59:11.249Z,11.41
2022-10-11T22:01:40.506Z,11.46
2022-10-11T22:04:08.526Z,11.35
2022-10-11T22:06:38.494Z,11.33
2022-10-11T22:09:07.015Z,11.39
2022-10-11T22:11:35.109Z,11.35
2022-10-11T22:14:02.979Z,11.43
2022-10-11T22:16:30.906Z,11.38
2022-10-11T22:18:59.948Z,11.34
2022-10-11T22:21:27.776Z,11.30
2022-10-11T22:23:57.058Z,11.26
2022-10-11T22:26:26.383Z,11.23
2022-10-11T22:28:54.515Z,11.19
2022-10-11T22:31:22.934Z,11.14
2022-10-11T22:33:54.466Z,10.98
2022-10-11T22:36:24.142Z,10.92
2022-10-11T22:38:52.370Z,10.92
2022-10-11T22:41:21.812Z,10.91
2022-10-11T22:43:49.789Z,10.86
2022-10-11T22:46:17.858Z,10.76
2022-10-11T22:48:45.731Z,10.75
2022-10-11T22:51:13.608Z,10.75
2022-10-11T22:53:41.472Z,10.78
2022-10-11T22:56:10.673Z,10.75
2022-10-11T22:58:39.907Z,10.70
2022-10-11T23:01:09.002Z,10.65
2022-10-11T23:03:37.232Z,10.68
2022-10-11T23:06:05.426Z,10.70
2022-10-11T23:08:33.385Z,10.74
2022-10-11T23:11:04.115Z,10.81
2022-10-11T23:13:31.997Z,10.88
2022-10-11T23:16:01.343Z,10.93
2022-10-11T23:18:29.222Z,10.91
2022-10-11T23:21:00.618Z,10.85
2022-10-11T23:23:28.541Z,10.83
2022-10-11T23:26:03.857Z,10.86
2022-10-11T23:28:31.882Z,10.84
2022-10-11T23:31:01.233Z,10.84
2022-10-11T23:33:29.462Z,10.87
2022-10-11T23:35:57.229Z,10.91
2022-10-11T23:38:25.121Z,10.90
2022-10-11T23:40:52.913Z,10.88
2022-10-11T23:43:20.760Z,10.88
2022-10-11T23:45:48.681Z,10.90
2022-10-11T23:48:17.925Z,10.96
2022-10-11T23:50:45.722Z,10.98
2022-10-11T23:53:14.335Z,10.97
2022-10-11T23:55:43.301Z,11.01
2022-10-11T23:58:11.226Z,10.99
